createdAt,value
2023-03-26T00:02:04.794Z,5.90
2023-03-26T00:04:34.472Z,6.10
2023-03-26T00:07:03.352Z,6.10
2023-03-26T00:09:34.697Z,6.40
2023-03-26T00:12:02.584Z,6.00
2023-03-26T00:14:30.536Z,6.60
2023-03-26T00:16:58.616Z,6.80
2023-03-26T00:19:28.643Z,6.60
2023-03-26T00:21:57.805Z,6.90
2023-03-26T00:24:29.964Z,6.50
2023-03-26T00:26:58.045Z,7.30
2023-03-26T00:29:28.312Z,6.80
2023-03-26T00:31:56.386Z,7.20
2023-03-26T00:34:25.053Z,6.50
2023-03-26T00:36:55.030Z,7.30
2023-03-26T00:39:25.725Z,7.20
2023-03-26T00:41:54.866Z,7.10
2023-03-26T00:44:23.401Z,7.10
2023-03-26T00:46:51.279Z,7.00
2023-03-26T00:49:20.689Z,7.00
2023-03-26T00:51:48.587Z,7.10
2023-03-26T00:54:16.690Z,6.90
2023-03-26T00:56:45.469Z,6.90
2023-03-26T00:59:13.866Z,6.80
2023-03-26T01:01:41.991Z,7.00
2023-03-26T01:04:30.977Z,6.70
2023-03-26T01:07:03.013Z,6.50
2023-03-26T01:09:35.127Z,6.70
2023-03-26T01:12:07.029Z,6.60
2023-03-26T01:14:35.324Z,6.30
2023-03-26T01:17:06.943Z,6.50
2023-03-26T01:19:44.913Z,5.90
2023-03-26T01:22:23.926Z,6.50
2023-03-26T01:24:56.865Z,6.00
2023-03-26T01:28:06.389Z,5.90
2023-03-26T01:30:58.873Z,5.90
2023-03-26T01:33:38.965Z,5.90
2023-03-26T01:36:49.635Z,6.00
2023-03-26T01:39:38.998Z,6.10
2023-03-26T01:42:15.898Z,6.00
2023-03-26T01:44:52.198Z,6.00
2023-03-26T01:47:21.947Z,6.10
2023-03-26T01:49:50.547Z,6.00
2023-03-26T01:52:25.191Z,6.00
2023-03-26T01:54:57.782Z,6.10
2023-03-26T01:57:59.277Z,6.10
2023-03-26T02:00:33.696Z,5.90
2023-03-26T02:03:32.268Z,5.30
2023-03-26T02:06:07.145Z,6.20
2023-03-26T02:09:03.135Z,5.40
2023-03-26T02:11:36.380Z,5.80
2023-03-26T02:14:06.329Z,5.60
2023-03-26T02:16:36.047Z,5.90
2023-03-26T02:19:04.560Z,5.80
2023-03-26T02:21:34.341Z,5.50
2023-03-26T02:24:04.887Z,5.50
2023-03-26T02:26:49.534Z,5.80
2023-03-26T02:29:21.426Z,5.70
2023-03-26T02:31:49.702Z,5.80
2023-03-26T02:34:17.619Z,5.90
2023-03-26T02:36:45.625Z,5.50
2023-03-26T02:39:15.662Z,5.50
2023-03-26T02:41:45.830Z,5.60
2023-03-26T02:44:13.967Z,5.00
2023-03-26T02:46:42.108Z,5.40
2023-03-26T02:49:10.502Z,5.20
2023-03-26T02:51:38.900Z,5.30
2023-03-26T02:54:10.024Z,4.90
2023-03-26T02:56:38.019Z,4.80
2023-03-26T02:59:06.074Z,4.70
2023-03-26T03:01:35.345Z,4.80
2023-03-26T03:04:04.529Z,4.80
2023-03-26T03:06:34.996Z,4.80
2023-03-26T03:09:03.027Z,4.50
2023-03-26T03:11:31.797Z,4.40
2023-03-26T03:13:59.748Z,4.50
2023-03-26T03:16:28.687Z,4.60
2023-03-26T03:18:58.389Z,4.60
2023-03-26T03:21:29.309Z,4.40
2023-03-26T03:24:33.538Z,3.80
2023-03-26T03:27:00.328Z,4.80
2023-03-26T03:29:35.310Z,4.60
2023-03-26T03:32:01.873Z,4.40
2023-03-26T03:34:28.414Z,4.20
2023-03-26T03:36:54.959Z,4.40
2023-03-26T03:39:21.601Z,4.50
2023-03-26T03:41:48.786Z,4.40
2023-03-26T03:44:16.158Z,4.30
2023-03-26T03:46:42.746Z,4.10
2023-03-26T03:49:09.243Z,3.70
2023-03-26T03:51:35.896Z,4.10
2023-03-26T03:54:05.131Z,4.10
2023-03-26T03:56:32.941Z,4.20
2023-03-26T03:58:59.729Z,3.90
2023-03-26T04:01:26.381Z,3.90
2023-03-26T04:03:53.098Z,3.70
2023-03-26T04:06:19.774Z,3.50
2023-03-26T04:08:46.251Z,3.70
2023-03-26T04:11:13.877Z,3.90
2023-03-26T04:13:40.448Z,3.70
2023-03-26T04:16:07.501Z,3.70
2023-03-26T04:18:33.949Z,4.00
2023-03-26T04:21:02.378Z,3.70
2023-03-26T04:23:31.526Z,3.60
2023-03-26T04:26:03.495Z,3.60
2023-03-26T04:28:47.303Z,3.60
2023-03-26T04:37:58.392Z,3.40
2023-03-26T04:40:26.329Z,3.70
2023-03-26T04:42:54.771Z,3.70
2023-03-26T04:45:23.220Z,3.70
2023-03-26T04:47:51.131Z,3.60
2023-03-26T04:50:19.118Z,3.70
2023-03-26T04:52:48.211Z,4.30
2023-03-26T04:55:31.537Z,3.70
2023-03-26T04:58:00.308Z,3.90
2023-03-26T05:00:28.598Z,4.30
2023-03-26T05:02:58.009Z,4.40
2023-03-26T05:05:27.308Z,4.30
2023-03-26T05:07:58.345Z,4.70
2023-03-26T05:10:26.137Z,4.30
2023-03-26T05:12:54.231Z,4.40
2023-03-26T05:15:23.183Z,4.40
2023-03-26T05:17:51.644Z,4.20
2023-03-26T05:20:22.979Z,4.50
2023-03-26T05:22:51.519Z,4.00
2023-03-26T05:25:20.064Z,4.30
2023-03-26T05:27:48.144Z,4.40
2023-03-26T05:30:18.970Z,3.90
2023-03-26T05:32:49.445Z,4.30
2023-03-26T05:35:18.695Z,4.30
2023-03-26T05:37:48.076Z,4.30
2023-03-26T05:40:17.415Z,4.20
2023-03-26T05:42:47.719Z,4.10
2023-03-26T05:45:16.296Z,4.30
2023-03-26T05:47:44.300Z,4.60
2023-03-26T05:50:12.361Z,4.20
2023-03-26T05:52:40.446Z,4.10
2023-03-26T05:55:19.044Z,4.10
2023-03-26T05:57:46.972Z,4.10
2023-03-26T06:00:18.102Z,3.90
2023-03-26T06:02:47.184Z,3.90
2023-03-26T06:05:16.154Z,3.90
2023-03-26T06:07:44.845Z,4.00
2023-03-26T06:10:17.945Z,4.10
2023-03-26T06:12:46.454Z,4.00
2023-03-26T06:15:16.877Z,4.10
2023-03-26T06:17:47.201Z,3.80
2023-03-26T06:20:15.889Z,3.60
2023-03-26T06:22:43.838Z,3.70
2023-03-26T06:25:12.434Z,3.60
2023-03-26T06:27:40.370Z,3.60
2023-03-26T06:30:08.770Z,3.70
2023-03-26T06:32:36.701Z,3.60
2023-03-26T06:35:05.071Z,3.30
2023-03-26T06:37:35.077Z,3.80
2023-03-26T06:40:06.358Z,3.60
2023-03-26T06:43:07.580Z,3.70
2023-03-26T06:45:23.842Z,3.60
2023-03-26T06:47:51.774Z,3.70
2023-03-26T06:50:21.384Z,3.30
2023-03-26T06:52:53.072Z,3.80
2023-03-26T06:55:21.780Z,3.70
2023-03-26T06:57:51.708Z,3.60
2023-03-26T07:00:21.660Z,3.80
2023-03-26T07:02:49.666Z,3.00
2023-03-26T07:05:18.240Z,4.10
2023-03-26T07:07:48.505Z,3.70
2023-03-26T07:10:18.180Z,3.50
2023-03-26T07:12:46.469Z,3.10
2023-03-26T07:15:14.385Z,3.40
2023-03-26T07:17:42.401Z,3.20
2023-03-26T07:20:11.808Z,3.30
2023-03-26T07:22:40.148Z,3.10
2023-03-26T07:25:09.006Z,3.00
2023-03-26T07:27:57.636Z,3.60
2023-03-26T07:30:47.105Z,3.30
2023-03-26T07:33:54.118Z,3.10
2023-03-26T07:36:48.492Z,2.90
2023-03-26T07:39:38.210Z,2.90
2023-03-26T07:42:47.944Z,3.00
2023-03-26T07:45:25.275Z,3.10
2023-03-26T07:47:53.976Z,2.80
2023-03-26T07:50:24.544Z,3.00
2023-03-26T07:52:54.966Z,2.90
2023-03-26T07:55:23.299Z,3.30
2023-03-26T07:58:02.125Z,3.20
2023-03-26T08:00:37.820Z,3.40
2023-03-26T08:03:27.123Z,3.20
2023-03-26T08:06:04.329Z,2.90
2023-03-26T08:08:48.495Z,3.10
2023-03-26T08:11:34.964Z,3.10
2023-03-26T08:14:18.417Z,3.10
2023-03-26T08:16:53.317Z,3.20
2023-03-26T08:19:58.327Z,2.80
2023-03-26T08:22:41.196Z,2.60
2023-03-26T08:25:17.892Z,2.80
2023-03-26T08:28:11.273Z,2.80
2023-03-26T08:30:39.576Z,2.70
2023-03-26T08:33:18.560Z,2.70
2023-03-26T08:42:18.833Z,2.30
2023-03-26T08:45:02.971Z,2.50
2023-03-26T08:47:50.147Z,2.70
2023-03-26T08:50:24.516Z,2.60
2023-03-26T08:53:20.247Z,2.80
2023-03-26T08:56:13.040Z,3.10
2023-03-26T08:59:15.298Z,2.80
2023-03-26T09:01:58.844Z,2.90
2023-03-26T09:04:47.086Z,2.90
2023-03-26T09:07:48.385Z,2.90
2023-03-26T09:10:25.539Z,3.30
2023-03-26T09:13:02.894Z,3.20
2023-03-26T09:15:50.452Z,4.40
2023-03-26T09:18:39.859Z,3.30
2023-03-26T09:21:16.580Z,3.70
2023-03-26T09:24:12.045Z,3.10
2023-03-26T09:26:52.142Z,2.80
2023-03-26T09:29:38.851Z,3.10
2023-03-26T09:32:54.694Z,3.00
2023-03-26T09:35:33.686Z,2.60
2023-03-26T09:38:22.009Z,2.50
2023-03-26T09:41:16.931Z,2.50
2023-03-26T09:43:55.865Z,2.40
2023-03-26T09:46:42.625Z,2.30
2023-03-26T09:49:30.858Z,2.20
2023-03-26T09:52:36.307Z,2.10
2023-03-26T09:55:07.499Z,2.30
2023-03-26T09:57:43.646Z,2.40
2023-03-26T10:00:35.668Z,2.20
2023-03-26T10:03:21.250Z,2.40
2023-03-26T10:05:52.409Z,2.30
2023-03-26T10:08:28.843Z,2.10
2023-03-26T10:11:36.068Z,2.30
2023-03-26T10:16:04.333Z,2.20
2023-03-26T10:19:11.137Z,2.50
2023-03-26T10:21:54.013Z,2.00
2023-03-26T10:25:03.966Z,1.70
2023-03-26T10:27:44.524Z,1.60
2023-03-26T10:30:44.901Z,1.80
2023-03-26T10:33:31.946Z,1.50
2023-03-26T10:36:45.520Z,1.50
2023-03-26T10:40:00.808Z,1.40
2023-03-26T10:42:47.715Z,1.20
2023-03-26T10:45:40.762Z,1.20
2023-03-26T10:48:35.893Z,1.30
2023-03-26T10:51:12.145Z,1.60
2023-03-26T10:54:12.508Z,1.60
2023-03-26T10:56:44.268Z,1.30
2023-03-26T10:59:14.990Z,0.90
2023-03-26T11:02:01.505Z,1.00
2023-03-26T11:04:57.508Z,0.90
2023-03-26T11:07:54.745Z,0.70
2023-03-26T11:10:45.812Z,0.80
2023-03-26T11:13:45.849Z,1.20
2023-03-26T11:16:25.540Z,1.40
2023-03-26T11:19:08.162Z,1.70
2023-03-26T11:21:54.638Z,1.70
2023-03-26T11:24:34.599Z,1.90
2023-03-26T11:27:15.508Z,2.10
2023-03-26T11:30:41.397Z,1.90
2023-03-26T11:33:32.564Z,2.10
2023-03-26T11:36:15.242Z,2.50
2023-03-26T11:38:47.605Z,2.30
2023-03-26T11:41:23.434Z,2.30
2023-03-26T11:43:56.661Z,2.20
2023-03-26T11:46:26.647Z,2.40
2023-03-26T11:49:04.262Z,2.30
2023-03-26T11:51:37.088Z,1.80
2023-03-26T11:54:08.193Z,1.90
2023-03-26T11:57:05.668Z,1.70
2023-03-26T11:59:56.663Z,2.10
2023-03-26T12:02:37.123Z,2.10
2023-03-26T12:05:15.611Z,1.90
2023-03-26T12:07:53.626Z,1.90
2023-03-26T12:10:38.139Z,1.90
2023-03-26T12:13:35.992Z,1.90
2023-03-26T12:16:19.319Z,2.00
2023-03-26T12:19:01.504Z,1.80
2023-03-26T12:21:29.527Z,1.60
2023-03-26T12:23:59.234Z,1.80
2023-03-26T12:26:51.841Z,1.40
2023-03-26T12:29:20.745Z,1.40
2023-03-26T12:31:56.370Z,1.30
2023-03-26T12:34:34.834Z,1.50
2023-03-26T12:37:04.872Z,1.60
2023-03-26T12:40:10.817Z,1.40
2023-03-26T12:44:43.591Z,1.50
2023-03-26T12:45:23.822Z,1.30
2023-03-26T12:48:00.710Z,1.50
2023-03-26T12:50:57.794Z,1.90
2023-03-26T12:53:41.304Z,1.50
2023-03-26T12:56:19.886Z,1.50
2023-03-26T12:59:01.572Z,1.70
2023-03-26T13:01:45.328Z,1.60
2023-03-26T13:04:28.823Z,1.40
2023-03-26T13:07:06.466Z,1.40
2023-03-26T13:10:01.090Z,1.40
2023-03-26T13:13:03.559Z,1.40
2023-03-26T13:15:39.650Z,1.60
2023-03-26T13:18:23.424Z,2.20
2023-03-26T13:21:18.500Z,2.10
2023-03-26T13:23:55.044Z,2.00
2023-03-26T13:26:38.065Z,1.50
2023-03-26T13:29:11.581Z,1.80
2023-03-26T13:31:47.598Z,1.40
2023-03-26T13:34:24.462Z,1.60
2023-03-26T13:37:22.649Z,1.60
2023-03-26T13:40:26.426Z,1.60
2023-03-26T13:43:09.297Z,1.40
2023-03-26T13:46:15.012Z,1.50
2023-03-26T13:48:52.978Z,1.20
2023-03-26T13:51:31.886Z,1.20
2023-03-26T13:54:14.063Z,1.40
2023-03-26T13:56:54.931Z,1.30
2023-03-26T13:59:32.638Z,1.30
2023-03-26T14:02:11.108Z,1.40
2023-03-26T14:04:49.873Z,1.30
2023-03-26T14:07:45.373Z,1.40
2023-03-26T14:10:27.393Z,1.30
2023-03-26T14:13:04.460Z,1.40
2023-03-26T14:15:46.947Z,1.30
2023-03-26T14:18:20.899Z,1.40
2023-03-26T14:21:19.723Z,1.70
2023-03-26T14:23:47.529Z,1.90
2023-03-26T14:26:41.007Z,2.10
2023-03-26T14:29:31.736Z,1.40
2023-03-26T14:32:24.488Z,1.20
2023-03-26T14:35:14.596Z,1.10
2023-03-26T14:38:00.636Z,1.10
2023-03-26T14:40:51.751Z,1.20
2023-03-26T14:43:34.554Z,1.00
2023-03-26T14:46:31.079Z,1.10
2023-03-26T14:49:36.332Z,1.30
2023-03-26T14:52:07.896Z,1.20
2023-03-26T14:59:18.750Z,1.40
2023-03-26T15:02:05.878Z,1.40
2023-03-26T15:04:52.517Z,1.40
2023-03-26T15:07:54.534Z,1.50
2023-03-26T15:10:44.350Z,1.50
2023-03-26T15:13:30.962Z,1.40
2023-03-26T15:16:30.637Z,1.50
2023-03-26T15:19:23.268Z,1.30
2023-03-26T15:21:59.974Z,1.30
2023-03-26T15:24:58.577Z,1.20
2023-03-26T15:27:37.787Z,1.20
2023-03-26T15:30:17.873Z,1.60
2023-03-26T15:32:49.766Z,1.40
2023-03-26T15:35:57.506Z,1.30
2023-03-26T15:38:51.940Z,1.50
2023-03-26T15:41:52.690Z,1.20
2023-03-26T15:44:43.787Z,1.50
2023-03-26T15:47:40.599Z,1.70
2023-03-26T15:50:38.232Z,1.40
2023-03-26T15:53:35.018Z,1.30
2023-03-26T15:56:31.939Z,1.30
2023-03-26T15:59:15.638Z,1.20
2023-03-26T16:02:34.850Z,1.40
2023-03-26T16:05:24.278Z,1.70
2023-03-26T16:08:15.787Z,1.70
2023-03-26T16:10:57.891Z,1.60
2023-03-26T16:16:24.760Z,1.70
2023-03-26T16:19:28.452Z,1.70
2023-03-26T16:22:08.403Z,1.60
2023-03-26T16:24:40.386Z,1.80
2023-03-26T16:27:20.064Z,1.80
2023-03-26T16:30:25.072Z,1.90
2023-03-26T16:32:55.731Z,1.80
2023-03-26T16:35:54.670Z,1.80
2023-03-26T16:38:24.407Z,1.90
2023-03-26T16:41:16.487Z,1.80
2023-03-26T16:44:11.105Z,1.80
2023-03-26T16:47:08.821Z,2.10
2023-03-26T16:52:31.504Z,2.00
2023-03-26T16:56:02.971Z,2.10
2023-03-26T16:58:40.248Z,2.60
2023-03-26T17:01:29.865Z,2.40
2023-03-26T17:04:10.342Z,2.30
2023-03-26T17:07:01.110Z,2.60
2023-03-26T17:10:01.975Z,2.50
2023-03-26T17:12:42.123Z,2.80
2023-03-26T17:15:30.109Z,2.70
2023-03-26T17:18:08.939Z,2.40
2023-03-26T17:20:59.009Z,3.00
2023-03-26T17:23:43.752Z,2.80
2023-03-26T17:26:23.920Z,3.20
2023-03-26T17:29:05.664Z,2.50
2023-03-26T17:31:38.666Z,2.60
2023-03-26T17:34:48.458Z,2.50
2023-03-26T17:37:21.247Z,2.50
2023-03-26T17:39:50.971Z,2.70
2023-03-26T17:42:32.142Z,2.60
2023-03-26T17:45:01.311Z,2.60
2023-03-26T17:47:56.202Z,2.70
2023-03-26T17:50:43.917Z,2.60
2023-03-26T17:53:22.911Z,2.80
2023-03-26T17:55:51.384Z,2.70
2023-03-26T17:58:37.233Z,2.70
2023-03-26T18:01:17.358Z,2.90
2023-03-26T18:03:50.697Z,2.80
2023-03-26T18:06:42.550Z,3.00
2023-03-26T18:09:12.256Z,3.00
2023-03-26T18:12:08.647Z,3.10
2023-03-26T18:14:43.986Z,3.00
2023-03-26T18:17:11.637Z,3.20
2023-03-26T18:19:52.674Z,3.40
2023-03-26T18:22:24.557Z,3.00
2023-03-26T18:26:14.417Z,3.20
2023-03-26T18:28:51.380Z,3.50
2023-03-26T18:31:25.073Z,3.50
2023-03-26T18:34:05.324Z,3.40
2023-03-26T18:36:33.308Z,3.90
2023-03-26T18:39:04.446Z,3.70
2023-03-26T18:41:41.987Z,3.60
2023-03-26T18:56:30.227Z,3.50
2023-03-26T18:59:06.762Z,3.50
2023-03-26T19:01:37.599Z,3.90
2023-03-26T19:04:08.824Z,4.20
2023-03-26T19:07:21.746Z,3.90
2023-03-26T19:10:38.659Z,4.00
2023-03-26T19:13:42.018Z,4.00
2023-03-26T19:16:26.670Z,4.10
2023-03-26T19:18:55.033Z,4.30
2023-03-26T19:21:23.529Z,4.40
2023-03-26T19:23:54.432Z,4.70
2023-03-26T19:26:22.773Z,4.80
2023-03-26T19:28:54.590Z,4.80
2023-03-26T19:31:35.680Z,5.10
2023-03-26T19:34:19.283Z,5.20
2023-03-26T19:36:56.401Z,4.80
2023-03-26T19:39:37.862Z,6.10
2023-03-26T19:42:11.606Z,6.10
2023-03-26T19:44:39.951Z,6.90
2023-03-26T19:47:52.236Z,8.30
2023-03-26T19:50:43.776Z,9.30
2023-03-26T19:53:16.784Z,10.20
2023-03-26T19:56:05.093Z,11.10
2023-03-26T19:58:35.667Z,12.00
2023-03-26T20:01:04.873Z,12.80
2023-03-26T20:03:47.262Z,12.90
2023-03-26T20:06:18.405Z,11.60
2023-03-26T20:08:52.107Z,11.10
2023-03-26T20:11:27.930Z,11.50
2023-03-26T20:16:57.235Z,9.40
2023-03-26T20:20:36.830Z,9.00
2023-03-26T20:24:17.882Z,8.80
2023-03-26T20:28:48.582Z,9.20
2023-03-26T20:31:49.481Z,8.80
2023-03-26T20:34:25.155Z,10.30
2023-03-26T20:37:01.391Z,11.10
2023-03-26T20:39:29.557Z,10.90
2023-03-26T20:41:57.923Z,11.10
2023-03-26T20:44:28.032Z,11.20
2023-03-26T20:46:58.905Z,11.20
2023-03-26T20:49:29.494Z,12.00
2023-03-26T20:51:59.838Z,11.30
2023-03-26T20:54:31.674Z,12.00
2023-03-26T20:58:34.588Z,10.80
2023-03-26T21:01:50.950Z,10.30
2023-03-26T21:04:20.398Z,11.20
2023-03-26T21:07:15.062Z,12.00
2023-03-26T21:09:56.257Z,11.50
2023-03-26T21:12:35.733Z,13.00
2023-03-26T21:15:23.132Z,13.30
2023-03-26T21:18:10.983Z,11.90
2023-03-26T21:22:36.024Z,11.90
2023-03-26T21:25:46.019Z,11.40
2023-03-26T21:28:35.829Z,13.80
2023-03-26T21:31:18.629Z,13.90
2023-03-26T21:33:49.578Z,13.30
2023-03-26T21:36:20.046Z,13.60
2023-03-26T21:38:55.697Z,12.90
2023-03-26T21:42:05.400Z,11.50
2023-03-26T21:45:19.050Z,11.40
2023-03-26T21:47:49.006Z,12.70
2023-03-26T21:50:21.777Z,12.80
2023-03-26T21:52:51.728Z,12.50
2023-03-26T21:55:22.738Z,12.80
2023-03-26T22:00:41.107Z,11.00
2023-03-26T22:03:18.220Z,13.20
2023-03-26T22:09:35.597Z,15.30
2023-03-26T22:12:05.473Z,15.80
2023-03-26T22:14:34.574Z,15.00
2023-03-26T22:17:03.400Z,15.40
2023-03-26T22:19:32.102Z,16.30
2023-03-26T22:22:00.711Z,15.70
2023-03-26T22:24:29.954Z,16.70
2023-03-26T22:26:57.950Z,16.90
2023-03-26T22:29:25.961Z,17.60
2023-03-26T22:31:53.913Z,18.80
2023-03-26T22:35:47.621Z,17.00
2023-03-26T22:39:27.507Z,17.30
2023-03-26T22:43:04.849Z,16.90
2023-03-26T22:46:44.200Z,17.80
2023-03-26T22:50:23.564Z,17.00
2023-03-26T22:52:51.683Z,19.80
2023-03-26T22:55:29.698Z,19.10
2023-03-26T22:57:58.177Z,19.30
2023-03-26T23:00:26.564Z,19.80
2023-03-26T23:05:30.079Z,17.00
2023-03-26T23:07:58.430Z,18.20
2023-03-26T23:10:26.442Z,19.30
2023-03-26T23:12:54.473Z,20.10
2023-03-26T23:15:25.932Z,19.90
2023-03-26T23:19:04.245Z,17.60
2023-03-26T23:22:50.751Z,17.40
2023-03-26T23:25:37.957Z,16.90
2023-03-26T23:29:20.445Z,15.80
2023-03-26T23:32:57.618Z,17.90
2023-03-26T23:35:25.898Z,20.30
2023-03-26T23:37:54.106Z,20.20
2023-03-26T23:40:22.130Z,20.40
2023-03-26T23:42:50.367Z,21.40
2023-03-26T23:45:18.338Z,19.50
2023-03-26T23:47:46.799Z,20.00
2023-03-26T23:50:16.556Z,19.60
2023-03-26T23:52:46.763Z,19.70
2023-03-26T23:55:14.641Z,19.70
2023-03-26T23:57:43.207Z,19.40
